sensor_id;sensor_type;location;lat;lon;timestamp;pressure;altitude;pressure_sealevel;temperature;humidity
41596;BME280;27283;52.504;13.358;2023-05-18T03:17:49;102372.72;;;7.00;73.72
41596;BME280;27283;52.504;13.358;2023-05-18T03:20:22;102372.41;;;7.05;73.50
41596;BME280;27283;52.504;13.358;2023-05-18T03:22:56;102374.72;;;7.11;73.96
41596;BME280;27283;52.504;13.358;2023-05-18T03:25:29;102369.78;;;7.18;73.50
41596;BME280;27283;52.504;13.358;2023-05-18T03:28:01;102369.44;;;7.09;73.45
41596;BME280;27283;52.504;13.358;2023-05-18T03:30:34;102365.28;;;7.05;74.51
41596;BME280;27283;52.504;13.358;2023-05-18T03:33:10;102375.09;;;7.05;74.44
41596;BME280;27283;52.504;13.358;2023-05-18T03:35:43;102366.31;;;6.90;74.69
41596;BME280;27283;52.504;13.358;2023-05-18T03:38:16;102369.72;;;6.92;74.63
41596;BME280;27283;52.504;13.358;2023-05-18T03:40:49;102373.09;;;7.08;74.17
41596;BME280;27283;52.504;13.358;2023-05-18T03:43:24;102381.13;;;7.08;74.37
41596;BME280;27283;52.504;13.358;2023-05-18T03:45:58;102380.53;;;7.03;74.70
41596;BME280;27283;52.504;13.358;2023-05-18T03:48:33;102385.31;;;7.13;75.24
41596;BME280;27283;52.504;13.358;2023-05-18T03:51:06;102385.56;;;7.35;74.11
41596;BME280;27283;52.504;13.358;2023-05-18T03:53:38;102383.47;;;7.13;74.36
41596;BME280;27283;52.504;13.358;2023-05-18T03:56:11;102377.81;;;7.31;73.73
41596;BME280;27283;52.504;13.358;2023-05-18T03:58:44;102386.50;;;6.94;74.80
41596;BME280;27283;52.504;13.358;2023-05-18T04:01:17;102386.00;;;7.02;75.51
41596;BME280;27283;52.504;13.358;2023-05-18T04:03:54;102393.69;;;6.94;74.83
41596;BME280;27283;52.504;13.358;2023-05-18T04:06:30;102399.03;;;6.94;75.59
41596;BME280;27283;52.504;13.358;2023-05-18T04:09:10;102403.44;;;6.95;75.54
41596;BME280;27283;52.504;13.358;2023-05-18T04:11:46;102399.16;;;7.05;75.74
41596;BME280;27283;52.504;13.358;2023-05-18T04:14:19;102399.66;;;6.84;75.92
41596;BME280;27283;52.504;13.358;2023-05-18T04:16:53;102394.63;;;6.92;76.53
41596;BME280;27283;52.504;13.358;2023-05-18T04:19:41;102408.59;;;6.98;76.00
41596;BME280;27283;52.504;13.358;2023-05-18T04:22:15;102410.06;;;7.02;75.75
41596;BME280;27283;52.504;13.358;2023-05-18T04:24:48;102405.22;;;6.94;76.20
41596;BME280;27283;52.504;13.358;2023-05-18T04:27:24;102411.69;;;7.04;75.99
41596;BME280;27283;52.504;13.358;2023-05-18T04:29:57;102411.06;;;7.14;75.23
41596;BME280;27283;52.504;13.358;2023-05-18T04:32:32;102420.56;;;7.05;75.68
41596;BME280;27283;52.504;13.358;2023-05-18T04:35:08;102411.06;;;7.14;76.08
41596;BME280;27283;52.504;13.358;2023-05-18T04:37:42;102412.38;;;7.21;75.18
41596;BME280;27283;52.504;13.358;2023-05-18T04:40:15;102414.44;;;7.30;74.99
41596;BME280;27283;52.504;13.358;2023-05-18T04:42:48;102422.09;;;7.49;73.56
41596;BME280;27283;52.504;13.358;2023-05-18T04:45:21;102421.00;;;7.39;74.40
41596;BME280;27283;52.504;13.358;2023-05-18T04:47:54;102419.84;;;7.43;74.84
41596;BME280;27283;52.504;13.358;2023-05-18T04:50:30;102425.50;;;7.38;74.83
41596;BME280;27283;52.504;13.358;2023-05-18T04:53:05;102422.63;;;7.54;74.16
41596;BME280;27283;52.504;13.358;2023-05-18T04:55:40;102430.97;;;7.50;74.25
41596;BME280;27283;52.504;13.358;2023-05-18T04:58:15;102432.16;;;7.58;73.73
41596;BME280;27283;52.504;13.358;2023-05-18T05:00:48;102433.47;;;7.66;73.96
41596;BME280;27283;52.504;13.358;2023-05-18T05:03:21;102431.22;;;7.85;73.66
41596;BME280;27283;52.504;13.358;2023-05-18T05:05:57;102433.16;;;7.96;72.92
41596;BME280;27283;52.504;13.358;2023-05-18T05:08:31;102431.53;;;7.93;73.62
41596;BME280;27283;52.504;13.358;2023-05-18T05:11:04;102433.16;;;7.96;72.77
41596;BME280;27283;52.504;13.358;2023-05-18T05:13:38;102425.84;;;7.98;73.02
41596;BME280;27283;52.504;13.358;2023-05-18T05:16:10;102425.75;;;7.99;72.31
41596;BME280;27283;52.504;13.358;2023-05-18T05:18:43;102426.69;;;8.24;72.03
41596;BME280;27283;52.504;13.358;2023-05-18T05:21:19;102424.03;;;8.74;70.16
41596;BME280;27283;52.504;13.358;2023-05-18T05:23:52;102435.34;;;9.50;67.15
41596;BME280;27283;52.504;13.358;2023-05-18T05:26:25;102435.19;;;9.87;64.90
41596;BME280;27283;52.504;13.358;2023-05-18T05:29:02;102435.47;;;10.41;62.23
41596;BME280;27283;52.504;13.358;2023-05-18T05:31:34;102434.44;;;10.87;61.05
41596;BME280;27283;52.504;13.358;2023-05-18T05:34:07;102430.41;;;11.46;59.33
41596;BME280;27283;52.504;13.358;2023-05-18T05:36:44;102436.44;;;12.02;56.32
41596;BME280;27283;52.504;13.358;2023-05-18T05:39:17;102443.66;;;12.73;54.59
41596;BME280;27283;52.504;13.358;2023-05-18T05:41:50;102447.63;;;12.69;53.68
41596;BME280;27283;52.504;13.358;2023-05-18T05:44:23;102454.97;;;13.56;50.90
41596;BME280;27283;52.504;13.358;2023-05-18T05:46:56;102450.53;;;13.75;50.43
41596;BME280;27283;52.504;13.358;2023-05-18T05:49:30;102455.22;;;13.24;50.13
41596;BME280;27283;52.504;13.358;2023-05-18T05:52:06;102452.34;;;12.86;51.61
41596;BME280;27283;52.504;13.358;2023-05-18T05:54:39;102459.72;;;12.84;52.15
41596;BME280;27283;52.504;13.358;2023-05-18T05:57:12;102460.22;;;13.09;51.65
41596;BME280;27283;52.504;13.358;2023-05-18T05:59:48;102458.63;;;13.06;52.49
41596;BME280;27283;52.504;13.358;2023-05-18T06:02:21;102464.69;;;13.96;50.49
41596;BME280;27283;52.504;13.358;2023-05-18T06:04:59;102458.44;;;13.96;49.47
41596;BME280;27283;52.504;13.358;2023-05-18T06:07:51;102463.38;;;13.53;50.77
41596;BME280;27283;52.504;13.358;2023-05-18T06:10:24;102456.72;;;14.70;48.01
41596;BME280;27283;52.504;13.358;2023-05-18T06:12:56;102453.91;;;15.80;45.50
41596;BME280;27283;52.504;13.358;2023-05-18T06:15:29;102455.38;;;15.02;46.29
41596;BME280;27283;52.504;13.358;2023-05-18T06:18:01;102457.84;;;14.77;46.08
41596;BME280;27283;52.504;13.358;2023-05-18T06:20:34;102461.00;;;14.73;48.02
41596;BME280;27283;52.504;13.358;2023-05-18T06:23:08;102455.66;;;15.27;45.67
41596;BME280;27283;52.504;13.358;2023-05-18T06:25:41;102455.06;;;14.87;47.68
41596;BME280;27283;52.504;13.358;2023-05-18T06:28:13;102461.41;;;14.96;46.40
41596;BME280;27283;52.504;13.358;2023-05-18T06:30:47;102457.28;;;15.64;45.08
41596;BME280;27283;52.504;13.358;2023-05-18T06:33:20;102457.56;;;15.16;45.14
41596;BME280;27283;52.504;13.358;2023-05-18T06:35:53;102456.25;;;15.38;46.48
41596;BME280;27283;52.504;13.358;2023-05-18T06:38:29;102461.16;;;14.33;48.05
41596;BME280;27283;52.504;13.358;2023-05-18T06:41:02;102464.06;;;14.22;47.73
41596;BME280;27283;52.504;13.358;2023-05-18T06:43:34;102465.00;;;14.68;47.75
41596;BME280;27283;52.504;13.358;2023-05-18T06:46:07;102462.75;;;15.46;47.01
41596;BME280;27283;52.504;13.358;2023-05-18T06:48:39;102463.28;;;15.67;44.88
41596;BME280;27283;52.504;13.358;2023-05-18T06:51:13;102472.13;;;14.69;45.64
41596;BME280;27283;52.504;13.358;2023-05-18T06:53:49;102465.81;;;15.69;44.39
41596;BME280;27283;52.504;13.358;2023-05-18T06:56:23;102464.59;;;15.81;42.90
41596;BME280;27283;52.504;13.358;2023-05-18T06:58:57;102465.22;;;16.27;42.84
41596;BME280;27283;52.504;13.358;2023-05-18T07:01:31;102469.94;;;15.55;43.50
41596;BME280;27283;52.504;13.358;2023-05-18T07:04:04;102467.03;;;16.19;43.33
41596;BME280;27283;52.504;13.358;2023-05-18T07:06:39;102459.88;;;15.29;44.53
41596;BME280;27283;52.504;13.358;2023-05-18T07:09:15;102454.16;;;14.96;45.30
41596;BME280;27283;52.504;13.358;2023-05-18T07:11:49;102462.38;;;15.04;45.20
41596;BME280;27283;52.504;13.358;2023-05-18T07:14:22;102451.75;;;16.60;42.09
41596;BME280;27283;52.504;13.358;2023-05-18T07:16:54;102457.91;;;16.28;42.35
41596;BME280;27283;52.504;13.358;2023-05-18T07:19:27;102458.41;;;15.53;43.58
41596;BME280;27283;52.504;13.358;2023-05-18T07:22:01;102463.13;;;17.15;39.79
41596;BME280;27283;52.504;13.358;2023-05-18T07:24:42;102447.84;;;17.22;39.69
41596;BME280;27283;52.504;13.358;2023-05-18T07:27:16;102449.97;;;16.86;40.18
41596;BME280;27283;52.504;13.358;2023-05-18T07:29:48;102455.56;;;16.33;41.90
41596;BME280;27283;52.504;13.358;2023-05-18T07:32:28;102451.53;;;16.45;41.14
41596;BME280;27283;52.504;13.358;2023-05-18T07:35:06;102449.22;;;17.26;39.19
41596;BME280;27283;52.504;13.358;2023-05-18T07:37:51;102444.28;;;17.13;40.19
41596;BME280;27283;52.504;13.358;2023-05-18T07:40:45;102453.47;;;16.61;39.83
41596;BME280;27283;52.504;13.358;2023-05-18T07:43:17;102452.09;;;16.23;41.10
41596;BME280;27283;52.504;13.358;2023-05-18T07:45:51;102455.22;;;15.57;42.03
41596;BME280;27283;52.504;13.358;2023-05-18T07:48:24;102454.34;;;15.93;40.89
41596;BME280;27283;52.504;13.358;2023-05-18T07:50:56;102461.69;;;15.20;42.09
41596;BME280;27283;52.504;13.358;2023-05-18T07:53:29;102456.41;;;15.99;40.72
41596;BME280;27283;52.504;13.358;2023-05-18T07:56:10;102449.63;;;15.59;41.26
41596;BME280;27283;52.504;13.358;2023-05-18T07:58:55;102444.06;;;15.60;40.94
41596;BME280;27283;52.504;13.358;2023-05-18T08:02:02;102454.16;;;14.96;41.07
41596;BME280;27283;52.504;13.358;2023-05-18T08:04:35;102457.66;;;14.61;42.31
41596;BME280;27283;52.504;13.358;2023-05-18T08:07:15;102459.66;;;14.21;42.74
41596;BME280;27283;52.504;13.358;2023-05-18T08:10:06;102455.75;;;14.33;43.93
41596;BME280;27283;52.504;13.358;2023-05-18T08:13:01;102464.34;;;13.52;44.88
41596;BME280;27283;52.504;13.358;2023-05-18T08:15:51;102467.34;;;14.16;46.04
41596;BME280;27283;52.504;13.358;2023-05-18T08:18:42;102463.25;;;14.12;44.42
41596;BME280;27283;52.504;13.358;2023-05-18T08:21:19;102459.16;;;15.63;41.05
41596;BME280;27283;52.504;13.358;2023-05-18T08:23:52;102460.50;;;15.41;39.79
41596;BME280;27283;52.504;13.358;2023-05-18T08:26:25;102459.88;;;15.47;39.57
41596;BME280;27283;52.504;13.358;2023-05-18T08:29:01;102465.63;;;15.26;40.03
41596;BME280;27283;52.504;13.358;2023-05-18T08:31:40;102466.59;;;14.89;41.92
41596;BME280;27283;52.504;13.358;2023-05-18T08:34:16;102465.00;;;15.32;40.10
41596;BME280;27283;52.504;13.358;2023-05-18T08:36:52;102460.88;;;15.82;39.66
41596;BME280;27283;52.504;13.358;2023-05-18T08:39:24;102466.94;;;15.04;41.47
41596;BME280;27283;52.504;13.358;2023-05-18T08:42:01;102471.59;;;14.28;43.51
41596;BME280;27283;52.504;13.358;2023-05-18T08:44:39;102464.34;;;14.19;42.74
41596;BME280;27283;52.504;13.358;2023-05-18T08:47:35;102461.59;;;14.01;43.22
41596;BME280;27283;52.504;13.358;2023-05-18T08:50:12;102466.19;;;13.42;44.72
41596;BME280;27283;52.504;13.358;2023-05-18T08:52:54;102454.09;;;13.75;43.35
41596;BME280;27283;52.504;13.358;2023-05-18T08:55:27;102465.22;;;14.10;42.97
41596;BME280;27283;52.504;13.358;2023-05-18T08:58:06;102462.09;;;14.14;43.22
41596;BME280;27283;52.504;13.358;2023-05-18T09:00:46;102467.97;;;13.90;44.12
41596;BME280;27283;52.504;13.358;2023-05-18T09:03:24;102463.50;;;13.52;43.91
41596;BME280;27283;52.504;13.358;2023-05-18T09:06:00;102467.31;;;13.29;44.11
41596;BME280;27283;52.504;13.358;2023-05-18T09:08:34;102464.63;;;13.78;44.89
41596;BME280;27283;52.504;13.358;2023-05-18T09:11:09;102461.47;;;14.30;43.00
41596;BME280;27283;52.504;13.358;2023-05-18T09:13:44;102464.56;;;14.73;41.27
41596;BME280;27283;52.504;13.358;2023-05-18T09:16:18;102462.59;;;15.11;40.43
41596;BME280;27283;52.504;13.358;2023-05-18T09:18:52;102467.59;;;16.73;38.86
41596;BME280;27283;52.504;13.358;2023-05-18T09:21:34;102465.38;;;17.44;35.28
41596;BME280;27283;52.504;13.358;2023-05-18T09:24:12;102462.84;;;17.43;35.65
41596;BME280;27283;52.504;13.358;2023-05-18T09:26:44;102448.69;;;17.97;35.30
41596;BME280;27283;52.504;13.358;2023-05-18T09:29:18;102451.25;;;17.74;35.58
41596;BME280;27283;52.504;13.358;2023-05-18T09:31:57;102448.91;;;19.06;32.32
41596;BME280;27283;52.504;13.358;2023-05-18T09:34:43;102451.97;;;18.71;33.29
41596;BME280;27283;52.504;13.358;2023-05-18T09:37:22;102446.06;;;18.59;33.25
41596;BME280;27283;52.504;13.358;2023-05-18T09:40:03;102437.13;;;17.78;36.23
41596;BME280;27283;52.504;13.358;2023-05-18T09:42:43;102445.31;;;18.42;34.23
41596;BME280;27283;52.504;13.358;2023-05-18T09:45:21;102436.81;;;17.73;35.89
41596;BME280;27283;52.504;13.358;2023-05-18T09:48:01;102440.31;;;16.32;38.64
41596;BME280;27283;52.504;13.358;2023-05-18T09:50:36;102435.06;;;16.47;37.93
41596;BME280;27283;52.504;13.358;2023-05-18T09:53:15;102427.09;;;16.45;39.23
41596;BME280;27283;52.504;13.358;2023-05-18T09:55:50;102441.16;;;16.83;36.76
41596;BME280;27283;52.504;13.358;2023-05-18T09:58:22;102440.44;;;16.73;36.32
41596;BME280;27283;52.504;13.358;2023-05-18T10:00:59;102443.69;;;16.00;37.95
41596;BME280;27283;52.504;13.358;2023-05-18T10:03:36;102439.19;;;16.17;37.97
41596;BME280;27283;52.504;13.358;2023-05-18T10:06:10;102437.69;;;16.22;36.37
41596;BME280;27283;52.504;13.358;2023-05-18T10:08:43;102439.03;;;17.20;36.60
41596;BME280;27283;52.504;13.358;2023-05-18T10:11:17;102437.50;;;17.17;34.83
41596;BME280;27283;52.504;13.358;2023-05-18T10:13:53;102424.56;;;17.52;35.06
41596;BME280;27283;52.504;13.358;2023-05-18T10:16:28;102417.47;;;17.51;35.14
41596;BME280;27283;52.504;13.358;2023-05-18T10:19:05;102426.63;;;18.31;33.71
41596;BME280;27283;52.504;13.358;2023-05-18T10:21:40;102411.78;;;18.73;31.69
41596;BME280;27283;52.504;13.358;2023-05-18T10:24:15;102424.91;;;17.74;33.07
41596;BME280;27283;52.504;13.358;2023-05-18T10:26:57;102413.19;;;17.32;34.00
41596;BME280;27283;52.504;13.358;2023-05-18T10:29:36;102404.84;;;18.63;33.33
41596;BME280;27283;52.504;13.358;2023-05-18T10:32:11;102403.25;;;19.99;30.36
41596;BME280;27283;52.504;13.358;2023-05-18T10:35:05;102400.47;;;19.69;30.55
41596;BME280;27283;52.504;13.358;2023-05-18T10:37:46;102402.34;;;20.43;29.30
41596;BME280;27283;52.504;13.358;2023-05-18T10:40:42;102404.47;;;19.81;30.65
41596;BME280;27283;52.504;13.358;2023-05-18T10:43:26;102400.78;;;18.90;31.70
41596;BME280;27283;52.504;13.358;2023-05-18T10:46:20;102388.59;;;19.62;31.76
41596;BME280;27283;52.504;13.358;2023-05-18T10:49:10;102390.94;;;19.65;31.46
41596;BME280;27283;52.504;13.358;2023-05-18T10:51:48;102392.78;;;20.17;30.65
41596;BME280;27283;52.504;13.358;2023-05-18T10:54:23;102388.50;;;18.94;32.29
41596;BME280;27283;52.504;13.358;2023-05-18T10:57:05;102391.16;;;18.48;33.62
41596;BME280;27283;52.504;13.358;2023-05-18T10:59:40;102381.22;;;19.09;30.65
41596;BME280;27283;52.504;13.358;2023-05-18T11:02:17;102391.06;;;18.95;32.75
41596;BME280;27283;52.504;13.358;2023-05-18T11:04:55;102384.84;;;18.47;33.16
41596;BME280;27283;52.504;13.358;2023-05-18T11:07:46;102390.41;;;16.92;36.07
41596;BME280;27283;52.504;13.358;2023-05-18T11:10:41;102385.06;;;16.15;37.39
41596;BME280;27283;52.504;13.358;2023-05-18T11:13:27;102401.72;;;16.63;35.90
41596;BME280;27283;52.504;13.358;2023-05-18T11:16:03;102394.91;;;15.82;37.64
41596;BME280;27283;52.504;13.358;2023-05-18T11:18:42;102397.28;;;15.14;38.65
41596;BME280;27283;52.504;13.358;2023-05-18T11:21:19;102399.97;;;14.78;39.45
41596;BME280;27283;52.504;13.358;2023-05-18T11:24:17;102394.25;;;15.17;39.79
41596;BME280;27283;52.504;13.358;2023-05-18T11:26:53;102386.81;;;16.83;36.50
41596;BME280;27283;52.504;13.358;2023-05-18T11:32:20;102382.75;;;18.57;33.85
41596;BME280;27283;52.504;13.358;2023-05-18T11:34:59;102381.22;;;18.23;32.95
41596;BME280;27283;52.504;13.358;2023-05-18T11:37:48;102379.53;;;17.58;34.47
41596;BME280;27283;52.504;13.358;2023-05-18T11:40:47;102368.31;;;18.26;33.54
41596;BME280;27283;52.504;13.358;2023-05-18T11:43:27;102378.91;;;18.04;32.88
41596;BME280;27283;52.504;13.358;2023-05-18T11:46:02;102379.91;;;17.47;34.19
41596;BME280;27283;52.504;13.358;2023-05-18T11:48:34;102376.00;;;17.00;35.54
41596;BME280;27283;52.504;13.358;2023-05-18T11:51:34;102383.00;;;16.09;37.04
41596;BME280;27283;52.504;13.358;2023-05-18T11:54:27;102375.47;;;15.68;37.97
41596;BME280;27283;52.504;13.358;2023-05-18T11:57:04;102370.00;;;15.60;37.87
41596;BME280;27283;52.504;13.358;2023-05-18T11:59:40;102375.97;;;15.90;38.93
41596;BME280;27283;52.504;13.358;2023-05-18T12:02:19;102376.25;;;15.79;37.98
41596;BME280;27283;52.504;13.358;2023-05-18T12:04:54;102374.22;;;16.15;37.97
41596;BME280;27283;52.504;13.358;2023-05-18T12:07:30;102369.25;;;16.02;36.74
41596;BME280;27283;52.504;13.358;2023-05-18T12:10:05;102369.56;;;16.42;36.27
41596;BME280;27283;52.504;13.358;2023-05-18T12:12:43;102371.72;;;16.89;34.75
41596;BME280;27283;52.504;13.358;2023-05-18T12:15:21;102370.88;;;16.89;35.23
41596;BME280;27283;52.504;13.358;2023-05-18T12:17:58;102367.66;;;17.18;34.48
41596;BME280;27283;52.504;13.358;2023-05-18T12:20:40;102377.19;;;17.47;35.15
41596;BME280;27283;52.504;13.358;2023-05-18T12:23:14;102366.97;;;17.49;33.96
41596;BME280;27283;52.504;13.358;2023-05-18T12:26:08;102364.56;;;17.54;34.02
41596;BME280;27283;52.504;13.358;2023-05-18T12:28:43;102356.97;;;17.41;34.15
41596;BME280;27283;52.504;13.358;2023-05-18T12:31:17;102356.59;;;17.44;33.77
41596;BME280;27283;52.504;13.358;2023-05-18T12:33:49;102352.03;;;17.28;34.53
41596;BME280;27283;52.504;13.358;2023-05-18T12:36:26;102352.06;;;16.95;34.92
41596;BME280;27283;52.504;13.358;2023-05-18T12:39:00;102356.47;;;17.21;34.05
41596;BME280;27283;52.504;13.358;2023-05-18T12:41:46;102355.28;;;16.99;34.03
41596;BME280;27283;52.504;13.358;2023-05-18T12:44:21;102357.66;;;17.02;34.14
41596;BME280;27283;52.504;13.358;2023-05-18T12:46:55;102342.84;;;16.72;34.81
41596;BME280;27283;52.504;13.358;2023-05-18T12:49:27;102354.56;;;16.80;35.15
41596;BME280;27283;52.504;13.358;2023-05-18T12:52:07;102347.75;;;16.84;34.41
41596;BME280;27283;52.504;13.358;2023-05-18T12:54:49;102348.34;;;16.29;35.38
41596;BME280;27283;52.504;13.358;2023-05-18T12:57:28;102337.72;;;16.77;34.60
41596;BME280;27283;52.504;13.358;2023-05-18T13:00:07;102337.44;;;17.13;33.95
41596;BME280;27283;52.504;13.358;2023-05-18T13:02:46;102340.66;;;17.16;34.55
41596;BME280;27283;52.504;13.358;2023-05-18T13:05:23;102343.56;;;16.98;35.14
41596;BME280;27283;52.504;13.358;2023-05-18T13:07:55;102335.53;;;16.80;35.10
41596;BME280;27283;52.504;13.358;2023-05-18T13:10:29;102338.09;;;16.82;34.42
41596;BME280;27283;52.504;13.358;2023-05-18T13:13:02;102335.91;;;16.94;34.25
41596;BME280;27283;52.504;13.358;2023-05-18T13:15:50;102337.44;;;17.05;33.92
41596;BME280;27283;52.504;13.358;2023-05-18T13:18:22;102332.59;;;16.57;34.49
41596;BME280;27283;52.504;13.358;2023-05-18T13:20:56;102329.13;;;16.98;34.17
41596;BME280;27283;52.504;13.358;2023-05-18T13:23:29;102333.19;;;17.10;33.87
41596;BME280;27283;52.504;13.358;2023-05-18T13:26:01;102332.31;;;17.18;33.84
41596;BME280;27283;52.504;13.358;2023-05-18T13:28:36;102335.06;;;16.93;34.56
41596;BME280;27283;52.504;13.358;2023-05-18T13:31:13;102320.13;;;16.97;34.89
41596;BME280;27283;52.504;13.358;2023-05-18T13:33:46;102319.09;;;17.07;34.98
41596;BME280;27283;52.504;13.358;2023-05-18T13:36:20;102328.25;;;17.06;34.61
41596;BME280;27283;52.504;13.358;2023-05-18T13:38:52;102326.59;;;17.05;34.42
41596;BME280;27283;52.504;13.358;2023-05-18T13:41:24;102322.94;;;16.63;34.19
41596;BME280;27283;52.504;13.358;2023-05-18T13:43:58;102319.94;;;16.15;34.78
41596;BME280;27283;52.504;13.358;2023-05-18T13:46:34;102322.91;;;15.95;36.39
41596;BME280;27283;52.504;13.358;2023-05-18T13:49:09;102310.84;;;16.33;35.35
41596;BME280;27283;52.504;13.358;2023-05-18T13:51:41;102314.31;;;16.59;34.81
41596;BME280;27283;52.504;13.358;2023-05-18T13:54:13;102308.72;;;16.77;34.72
41596;BME280;27283;52.504;13.358;2023-05-18T13:56:45;102308.19;;;16.74;34.55
41596;BME280;27283;52.504;13.358;2023-05-18T13:59:17;102312.81;;;16.98;33.82
41596;BME280;27283;52.504;13.358;2023-05-18T14:01:53;102306.72;;;16.96;33.54
41596;BME280;27283;52.504;13.358;2023-05-18T14:04:28;102295.97;;;16.53;34.55
41596;BME280;27283;52.504;13.358;2023-05-18T14:07:02;102302.22;;;16.62;34.00
41596;BME280;27283;52.504;13.358;2023-05-18T14:09:34;102305.28;;;16.51;34.14
41596;BME280;27283;52.504;13.358;2023-05-18T14:12:07;102296.44;;;16.48;34.44
41596;BME280;27283;52.504;13.358;2023-05-18T14:14:41;102310.06;;;16.73;34.39
41596;BME280;27283;52.504;13.358;2023-05-18T14:17:16;102303.25;;;16.69;34.12
41596;BME280;27283;52.504;13.358;2023-05-18T14:19:49;102298.84;;;16.52;34.90
41596;BME280;27283;52.504;13.358;2023-05-18T14:22:21;102295.97;;;16.61;34.95
41596;BME280;27283;52.504;13.358;2023-05-18T14:24:54;102295.63;;;16.64;34.91
41596;BME280;27283;52.504;13.358;2023-05-18T14:27:28;102290.47;;;16.28;34.16
41596;BME280;27283;52.504;13.358;2023-05-18T14:30:01;102290.69;;;16.60;34.55
41596;BME280;27283;52.504;13.358;2023-05-18T14:32:36;102298.38;;;16.73;34.22
41596;BME280;27283;52.504;13.358;2023-05-18T14:35:11;102291.19;;;16.63;34.07
41596;BME280;27283;52.504;13.358;2023-05-18T14:37:43;102289.00;;;16.75;34.34
41596;BME280;27283;52.504;13.358;2023-05-18T14:40:15;102286.34;;;17.00;33.76
41596;BME280;27283;52.504;13.358;2023-05-18T14:42:47;102289.22;;;16.98;34.58
41596;BME280;27283;52.504;13.358;2023-05-18T14:45:21;102296.50;;;16.98;33.75
41596;BME280;27283;52.504;13.358;2023-05-18T14:47:56;102284.09;;;17.12;33.96
41596;BME280;27283;52.504;13.358;2023-05-18T14:50:30;102291.91;;;17.23;32.72
41596;BME280;27283;52.504;13.358;2023-05-18T14:53:06;102282.56;;;17.01;33.77
41596;BME280;27283;52.504;13.358;2023-05-18T14:55:38;102280.53;;;17.11;33.78
41596;BME280;27283;52.504;13.358;2023-05-18T14:58:11;102280.00;;;17.32;32.94
41596;BME280;27283;52.504;13.358;2023-05-18T15:00:45;102285.44;;;17.32;33.32
41596;BME280;27283;52.504;13.358;2023-05-18T15:03:22;102281.56;;;17.18;33.63
41596;BME280;27283;52.504;13.358;2023-05-18T15:05:56;102275.44;;;17.08;33.58
41596;BME280;27283;52.504;13.358;2023-05-18T15:08:28;102283.03;;;17.46;32.69
41596;BME280;27283;52.504;13.358;2023-05-18T15:11:04;102280.44;;;17.61;32.93
41596;BME280;27283;52.504;13.358;2023-05-18T15:13:50;102285.03;;;17.52;32.90
41596;BME280;27283;52.504;13.358;2023-05-18T15:16:25;102284.19;;;17.51;32.55
41596;BME280;27283;52.504;13.358;2023-05-18T15:19:00;102291.00;;;17.47;33.10
41596;BME280;27283;52.504;13.358;2023-05-18T15:21:33;102281.66;;;17.42;33.28
41596;BME280;27283;52.504;13.358;2023-05-18T15:24:06;102278.75;;;17.51;32.93
41596;BME280;27283;52.504;13.358;2023-05-18T15:26:39;102277.94;;;17.34;34.08
41596;BME280;27283;52.504;13.358;2023-05-18T15:29:11;102274.38;;;17.34;33.59
41596;BME280;27283;52.504;13.358;2023-05-18T15:31:47;102274.28;;;17.59;33.83
41596;BME280;27283;52.504;13.358;2023-05-18T15:34:25;102274.81;;;17.54;33.56
41596;BME280;27283;52.504;13.358;2023-05-18T15:37:01;102286.41;;;17.48;33.48
41596;BME280;27283;52.504;13.358;2023-05-18T15:39:43;102280.31;;;17.38;33.83
41596;BME280;27283;52.504;13.358;2023-05-18T15:42:15;102270.66;;;17.27;33.67
41596;BME280;27283;52.504;13.358;2023-05-18T15:44:48;102271.13;;;17.47;33.95
41596;BME280;27283;52.504;13.358;2023-05-18T15:47:21;102262.44;;;17.51;33.70
41596;BME280;27283;52.504;13.358;2023-05-18T15:50:08;102270.75;;;17.58;33.67
41596;BME280;27283;52.504;13.358;2023-05-18T15:52:41;102273.34;;;17.43;33.50
41596;BME280;27283;52.504;13.358;2023-05-18T15:55:13;102269.34;;;17.06;34.01
41596;BME280;27283;52.504;13.358;2023-05-18T15:57:47;102257.47;;;16.99;34.36
41596;BME280;27283;52.504;13.358;2023-05-18T16:00:19;102264.41;;;16.85;34.79
41596;BME280;27283;52.504;13.358;2023-05-18T16:02:52;102258.28;;;16.58;35.38
41596;BME280;27283;52.504;13.358;2023-05-18T16:05:27;102266.25;;;16.60;36.33
41596;BME280;27283;52.504;13.358;2023-05-18T16:08:05;102256.06;;;16.37;35.83
41596;BME280;27283;52.504;13.358;2023-05-18T16:10:39;102256.06;;;16.62;35.82
41596;BME280;27283;52.504;13.358;2023-05-18T16:13:11;102252.34;;;16.63;35.33
41596;BME280;27283;52.504;13.358;2023-05-18T16:15:43;102253.19;;;16.80;35.29
41596;BME280;27283;52.504;13.358;2023-05-18T16:18:23;102257.63;;;16.73;35.37
41596;BME280;27283;52.504;13.358;2023-05-18T16:20:58;102256.25;;;16.69;34.75
41596;BME280;27283;52.504;13.358;2023-05-18T16:23:30;102255.03;;;16.71;34.78
41596;BME280;27283;52.504;13.358;2023-05-18T16:26:04;102247.59;;;16.73;35.05
41596;BME280;27283;52.504;13.358;2023-05-18T16:28:52;102248.97;;;16.77;35.04
41596;BME280;27283;52.504;13.358;2023-05-18T16:31:24;102257.63;;;16.73;35.10
41596;BME280;27283;52.504;13.358;2023-05-18T16:34:12;102256.25;;;16.52;34.82
41596;BME280;27283;52.504;13.358;2023-05-18T16:36:49;102263.72;;;16.50;35.16
41596;BME280;27283;52.504;13.358;2023-05-18T16:39:23;102268.44;;;16.48;35.21
41596;BME280;27283;52.504;13.358;2023-05-18T16:42:13;102272.84;;;16.41;34.63
41596;BME280;27283;52.504;13.358;2023-05-18T16:44:55;102263.38;;;16.37;35.28
41596;BME280;27283;52.504;13.358;2023-05-18T16:47:44;102267.25;;;16.42;34.95